Time;durP1;ratioP1;P1;durP2;ratioP2;P2;SDS_P1;SDS_P2;PMS_P1;PMS_P2;Temp;Humidity;BMP_temperature;BMP_pressure;BME280_temperature;BME280_humidity;BME280_pressure;Samples;Min_cycle;Max_cycle;Signal;HPM_P1;HPM_P2
2022/05/10 00:01:42;;;;;;;14.38;9.98;;;;;;;10.47;86.88;97929.16;5001176;28;20722;-64
2022/05/10 00:04:10;;;;;;;13.80;11.00;;;;;;;10.59;86.37;97934.56;5003477;28;20700;-64
2022/05/10 00:06:40;;;;;;;13.50;10.07;;;;;;;10.70;85.70;97930.19;5004219;28;20100;-63
2022/05/10 00:09:08;;;;;;;12.75;9.77;;;;;;;10.71;85.72;97929.09;4995144;28;20600;-64
2022/05/10 00:11:35;;;;;;;11.93;10.02;;;;;;;10.58;85.72;97932.91;5003714;28;20042;-64
2022/05/10 00:14:01;;;;;;;11.77;10.13;;;;;;;10.36;86.79;97933.50;4989213;28;20053;-63
2022/05/10 00:16:28;;;;;;;13.18;10.07;;;;;;;10.32;87.75;97932.31;4995724;28;20045;-63
2022/05/10 00:18:55;;;;;;;10.82;9.55;;;;;;;10.23;86.61;97929.97;4996802;28;20041;-63
2022/05/10 00:21:24;;;;;;;13.90;9.93;;;;;;;10.09;87.42;97925.84;5007060;28;20501;-63
2022/05/10 00:23:51;;;;;;;12.40;10.15;;;;;;;10.02;88.08;97931.38;5006155;28;20046;-63
2022/05/10 00:26:18;;;;;;;10.93;9.65;;;;;;;10.01;88.10;97924.31;5003925;28;20041;-62
2022/05/10 00:28:45;;;;;;;13.27;10.38;;;;;;;10.06;88.12;97929.03;5005267;28;20124;-62
2022/05/10 00:31:12;;;;;;;12.65;11.35;;;;;;;10.08;88.54;97925.03;4987946;28;20712;-63
2022/05/10 00:33:39;;;;;;;12.93;10.27;;;;;;;10.30;88.27;97923.59;4990832;28;20502;-63
2022/05/10 00:36:09;;;;;;;14.95;11.18;;;;;;;10.58;86.54;97920.19;5006201;28;20749;-63
2022/05/10 00:38:38;;;;;;;15.05;9.85;;;;;;;10.68;85.91;97922.28;5007233;28;20472;-64
2022/05/10 00:41:11;;;;;;;11.93;10.27;;;;;;;10.76;85.58;97913.78;5007189;28;20048;-63
2022/05/10 00:43:42;;;;;;;10.90;9.30;;;;;;;10.83;85.17;97915.56;5006898;28;20057;-64
2022/05/10 00:46:17;;;;;;;14.25;10.00;;;;;;;10.90;84.73;97913.50;4997671;28;20555;-63
2022/05/10 00:49:02;;;;;;;10.93;9.60;;;;;;;10.90;84.84;97913.50;4999826;28;20117;-63
2022/05/10 00:51:54;;;;;;;11.70;9.55;;;;;;;10.87;84.90;97917.53;5006081;28;20038;-64
2022/05/10 00:54:50;;;;;;;14.82;10.18;;;;;;;10.79;85.40;97918.72;5020063;28;20045;-64
2022/05/10 01:14:16;;;;;;;11.13;9.55;;;;;;;10.25;86.72;97898.06;4991928;28;20674;-62
2022/05/10 01:16:42;;;;;;;13.85;10.27;;;;;;;10.23;86.86;97888.53;5007101;28;20156;-63
2022/05/10 01:19:10;;;;;;;13.05;10.20;;;;;;;10.21;87.33;97888.78;5007367;28;20100;-62
2022/05/10 01:21:55;;;;;;;13.82;11.30;;;;;;;10.29;86.92;97884.91;5004525;28;20100;-63
2022/05/10 01:24:41;;;;;;;11.95;10.38;;;;;;;10.26;86.26;97882.66;5006516;28;20505;-63
2022/05/10 01:27:24;;;;;;;14.95;10.52;;;;;;;10.02;87.52;97883.50;4994733;28;20053;-63
2022/05/10 01:30:15;;;;;;;14.23;10.93;;;;;;;9.91;88.45;97878.91;5001293;28;20049;-63
2022/05/10 01:35:42;;;;;;;13.70;11.43;;;;;;;9.90;88.31;97871.88;5008160;28;20077;-63
2022/05/10 01:38:36;;;;;;;12.93;10.70;;;;;;;9.96;88.39;97876.34;5019369;28;20068;-63
2022/05/10 01:41:41;;;;;;;13.55;10.50;;;;;;;10.06;88.04;97869.50;4990557;28;20041;-63
2022/05/10 01:44:19;;;;;;;15.77;11.20;;;;;;;10.14;87.65;97869.16;4976602;28;20054;-64
2022/05/10 01:46:47;;;;;;;12.57;10.15;;;;;;;10.21;87.01;97869.84;4995637;28;20086;-63
2022/05/10 01:49:32;;;;;;;15.10;10.90;;;;;;;10.21;86.80;97869.03;5006832;28;20030;-63
2022/05/10 01:52:11;;;;;;;13.90;11.00;;;;;;;10.08;87.24;97867.38;4998514;28;20049;-62
2022/05/10 01:54:40;;;;;;;15.30;11.43;;;;;;;10.04;87.38;97874.31;5000023;28;20050;-63
2022/05/10 01:57:16;;;;;;;12.23;10.73;;;;;;;9.99;87.41;97865.03;4993168;28;20042;-62
2022/05/10 01:59:52;;;;;;;13.23;10.98;;;;;;;9.93;87.90;97863.28;4995123;28;20119;-63
2022/05/10 02:02:22;;;;;;;13.70;11.13;;;;;;;9.92;88.04;97869.75;5005729;28;20448;-62
2022/05/10 02:04:54;;;;;;;12.50;10.82;;;;;;;9.95;88.18;97869.25;5004845;28;20053;-62
2022/05/10 02:07:26;;;;;;;15.45;11.30;;;;;;;9.97;88.03;97858.22;4993240;28;20101;-63
2022/05/10 02:10:02;;;;;;;13.63;10.90;;;;;;;9.97;87.87;97859.06;5006080;28;20038;-63
2022/05/10 02:13:01;;;;;;;14.02;11.15;;;;;;;10.04;87.91;97858.09;4989416;28;20076;-62
2022/05/10 02:15:51;;;;;;;13.80;10.95;;;;;;;10.08;87.60;97862.81;4988492;28;20436;-63
2022/05/10 02:18:29;;;;;;;14.30;11.02;;;;;;;10.04;87.65;97858.94;4992231;28;20889;-62
2022/05/10 02:21:03;;;;;;;13.25;10.18;;;;;;;10.12;87.55;97863.16;4990393;28;20661;-63
2022/05/10 02:23:34;;;;;;;12.45;10.25;;;;;;;10.12;87.26;97861.28;5006992;28;20057;-62
2022/05/10 02:26:06;;;;;;;14.48;11.93;;;;;;;10.14;87.29;97859.13;5000547;28;20042;-62
2022/05/10 02:28:47;;;;;;;12.57;10.43;;;;;;;10.21;86.97;97855.50;4992691;28;20073;-61
2022/05/10 02:31:21;;;;;;;13.13;9.90;;;;;;;10.22;87.08;97852.56;5000915;28;20413;-63
2022/05/10 02:33:50;;;;;;;14.02;10.20;;;;;;;10.26;86.93;97852.91;4995637;28;20141;-63
2022/05/10 02:36:17;;;;;;;14.52;10.85;;;;;;;10.25;86.96;97848.56;5003475;28;20054;-63
2022/05/10 02:38:45;;;;;;;12.70;11.05;;;;;;;10.21;87.02;97848.19;5012096;28;20100;-62
2022/05/10 02:41:20;;;;;;;13.25;10.85;;;;;;;10.18;87.19;97847.84;5006498;28;20053;-63
2022/05/10 02:44:05;;;;;;;17.08;11.70;;;;;;;10.15;87.25;97835.63;4998497;28;20042;-62
2022/05/10 02:46:32;;;;;;;14.68;11.65;;;;;;;10.18;87.23;97845.16;4998018;28;20046;-62
2022/05/10 02:48:59;;;;;;;14.90;11.45;;;;;;;10.19;87.09;97846.78;4985571;28;20457;-63
2022/05/10 02:51:25;;;;;;;14.68;11.32;;;;;;;10.23;87.12;97842.53;5000782;28;20034;-62
2022/05/10 02:53:52;;;;;;;15.32;11.45;;;;;;;10.27;86.62;97852.66;5005688;28;20049;-62
2022/05/10 02:56:23;;;;;;;14.20;11.32;;;;;;;10.33;86.64;97848.19;5004921;28;20060;-63
2022/05/10 02:59:01;;;;;;;13.95;11.30;;;;;;;10.25;86.70;97845.84;5004929;28;20044;-64
2022/05/10 03:02:07;;;;;;;12.80;10.95;;;;;;;10.16;87.18;97839.97;5001102;28;20097;-62
2022/05/10 03:04:37;;;;;;;16.52;12.40;;;;;;;10.18;87.04;97839.72;5003694;28;20034;-63
2022/05/10 03:07:47;;;;;;;14.15;11.77;;;;;;;10.22;86.99;97833.63;4990512;28;20042;-62
2022/05/10 03:10:14;;;;;;;16.23;12.25;;;;;;;10.20;86.99;97830.31;5009028;28;20045;-63
2022/05/10 03:12:40;;;;;;;15.90;11.48;;;;;;;10.17;86.96;97841.59;5003810;28;20053;-62
2022/05/10 03:15:07;;;;;;;13.15;11.50;;;;;;;10.12;87.28;97830.69;5005364;28;20046;-62
2022/05/10 03:17:34;;;;;;;13.13;11.73;;;;;;;10.07;87.78;97830.56;5004289;28;20723;-63
2022/05/10 03:20:01;;;;;;;17.85;11.45;;;;;;;10.11;87.63;97829.88;5005216;28;20544;-62
2022/05/10 03:22:29;;;;;;;15.52;12.65;;;;;;;10.28;86.66;97832.66;5005059;28;20176;-63
2022/05/10 03:24:55;;;;;;;12.98;11.57;;;;;;;10.35;86.56;97832.50;4986177;28;20050;-62
2022/05/10 03:27:28;;;;;;;14.20;11.50;;;;;;;10.33;86.45;97833.81;5001539;28;20452;-62
2022/05/10 03:29:55;;;;;;;13.02;10.82;;;;;;;10.27;86.54;97831.00;5004975;28;20038;-64
2022/05/10 03:32:21;;;;;;;14.18;11.38;;;;;;;10.25;86.73;97835.81;4998256;28;20042;-63
2022/05/10 03:34:54;;;;;;;14.80;11.77;;;;;;;10.23;86.82;97832.56;5003365;28;20046;-63
2022/05/10 03:37:26;;;;;;;14.52;12.07;;;;;;;10.27;86.70;97833.72;5004676;28;20045;-63
2022/05/10 03:39:52;;;;;;;13.93;11.48;;;;;;;10.36;86.29;97833.34;5004332;28;20056;-63
2022/05/10 03:42:20;;;;;;;14.45;11.93;;;;;;;10.33;86.30;97831.94;5004448;28;20054;-63
2022/05/10 03:44:50;;;;;;;14.57;11.07;;;;;;;10.27;86.69;97830.19;4982012;28;20101;-63
2022/05/10 03:47:18;;;;;;;14.77;11.45;;;;;;;10.22;86.79;97827.38;4992025;28;20045;-62
2022/05/10 03:49:46;;;;;;;15.00;11.57;;;;;;;10.19;86.92;97831.38;5007319;28;20053;-63
2022/05/10 03:52:14;;;;;;;17.75;11.20;;;;;;;10.15;87.14;97836.44;5009065;28;20429;-63
2022/05/10 03:54:41;;;;;;;14.30;12.13;;;;;;;10.12;87.19;97836.09;5012494;28;20060;-63
2022/05/10 03:57:08;;;;;;;17.20;12.45;;;;;;;10.15;87.12;97833.72;5018754;28;20672;-63
2022/05/10 03:59:41;;;;;;;14.55;11.80;;;;;;;10.18;87.34;97831.63;5012355;28;20099;-62
2022/05/10 04:02:10;;;;;;;15.00;11.77;;;;;;;10.30;86.77;97832.41;5012843;28;20065;-63
2022/05/10 04:04:37;;;;;;;14.10;11.57;;;;;;;10.39;86.34;97832.84;5012894;28;20044;-62
2022/05/10 04:07:05;;;;;;;14.18;11.32;;;;;;;10.49;86.05;97832.28;5010083;28;20076;-63
2022/05/10 04:09:32;;;;;;;13.45;10.73;;;;;;;10.53;85.73;97826.16;4996792;28;20062;-63
2022/05/10 04:11:59;;;;;;;12.65;11.35;;;;;;;10.56;85.42;97832.97;4996619;28;20453;-63
2022/05/10 04:14:26;;;;;;;15.13;11.00;;;;;;;10.59;85.45;97828.94;5005164;28;20501;-63
2022/05/10 04:16:52;;;;;;;13.40;10.88;;;;;;;10.59;85.53;97831.66;4996677;28;20093;-62
2022/05/10 04:19:19;;;;;;;15.82;11.65;;;;;;;10.62;85.25;97825.78;5003844;28;20038;-62
2022/05/10 04:21:45;;;;;;;14.15;11.57;;;;;;;10.61;85.38;97821.41;5005150;28;20042;-62
2022/05/10 04:24:12;;;;;;;15.05;11.60;;;;;;;10.64;85.34;97823.63;5013419;28;20046;-62
2022/05/10 04:26:39;;;;;;;14.65;12.75;;;;;;;10.72;85.12;97817.03;5005629;28;20034;-62
2022/05/10 04:29:06;;;;;;;14.15;11.60;;;;;;;10.82;84.75;97819.06;5005598;28;20046;-63
2022/05/10 04:31:32;;;;;;;13.30;10.90;;;;;;;10.92;84.41;97816.56;5018924;28;20058;-63
2022/05/10 04:33:59;;;;;;;16.65;11.50;;;;;;;11.02;84.21;97821.38;5015039;28;20800;-63
2022/05/10 04:36:25;;;;;;;14.65;11.05;;;;;;;11.10;83.83;97826.38;5012847;28;20049;-63
2022/05/10 04:38:52;;;;;;;15.75;11.45;;;;;;;11.21;83.49;97823.84;5014115;28;20135;-63
2022/05/10 04:41:26;;;;;;;13.55;10.55;;;;;;;11.31;83.32;97810.44;5018088;28;20233;-63
2022/05/10 04:44:05;;;;;;;15.23;11.68;;;;;;;11.45;82.63;97819.06;5014087;28;20046;-62
2022/05/10 04:46:35;;;;;;;12.25;10.55;;;;;;;11.56;82.29;97817.34;5006099;28;20495;-62
2022/05/10 04:49:03;;;;;;;13.27;11.35;;;;;;;11.64;82.20;97816.94;4989063;28;20121;-62
2022/05/10 04:51:32;;;;;;;14.95;11.70;;;;;;;11.68;82.03;97820.78;5003100;28;20054;-61
2022/05/10 04:53:59;;;;;;;17.80;11.18;;;;;;;11.71;82.00;97823.03;5007161;28;20042;-62
2022/05/10 04:56:26;;;;;;;13.75;10.68;;;;;;;11.75;82.12;97820.63;5011594;28;20049;-62
2022/05/10 04:58:54;;;;;;;16.08;11.10;;;;;;;11.82;82.04;97832.13;5025457;28;20960;-62
2022/05/10 05:01:29;;;;;;;14.73;11.40;;;;;;;11.86;81.99;97835.16;5018244;28;20050;-63
2022/05/10 05:03:56;;;;;;;12.13;10.43;;;;;;;11.95;82.48;97839.09;4997091;28;20076;-60
2022/05/10 05:06:24;;;;;;;15.35;10.55;;;;;;;12.03;81.58;97847.88;4993195;28;20056;-61
2022/05/10 05:08:51;;;;;;;12.60;10.48;;;;;;;12.11;81.87;97844.78;5004358;28;20045;-62
2022/05/10 05:11:18;;;;;;;13.13;11.00;;;;;;;12.27;81.18;97848.50;5014723;28;20133;-62
2022/05/10 05:13:45;;;;;;;12.50;9.13;;;;;;;12.48;80.64;97848.78;5006521;28;20476;-62
2022/05/10 05:16:12;;;;;;;11.82;9.95;;;;;;;12.65;79.93;97847.88;4995682;28;20048;-61
2022/05/10 05:18:39;;;;;;;12.43;9.75;;;;;;;12.70;80.01;97840.63;4995833;28;20533;-61
2022/05/10 05:21:05;;;;;;;11.32;9.38;;;;;;;12.85;79.86;97850.00;5023482;28;20425;-61
2022/05/10 05:23:32;;;;;;;11.40;9.30;;;;;;;12.94;78.50;97853.09;5010407;28;20046;-61
2022/05/10 05:25:58;;;;;;;12.35;10.18;;;;;;;13.09;78.26;97849.72;5003161;28;20038;-61
2022/05/10 05:28:25;;;;;;;14.20;9.93;;;;;;;13.12;77.70;97849.22;5013675;28;20041;-62
2022/05/10 05:30:52;;;;;;;11.95;9.43;;;;;;;13.14;77.60;97850.59;5012287;28;20797;-62
2022/05/10 05:33:18;;;;;;;11.65;9.73;;;;;;;13.13;77.59;97857.09;5005642;28;20628;-61
2022/05/10 05:35:45;;;;;;;10.18;9.05;;;;;;;13.17;77.62;97851.16;5004966;28;20045;-62
2022/05/10 05:38:11;;;;;;;12.00;9.60;;;;;;;13.18;77.88;97852.78;5016554;28;20041;-62
2022/05/10 05:40:39;;;;;;;13.70;8.75;;;;;;;13.24;77.54;97858.00;5012839;28;20815;-62
2022/05/10 05:43:06;;;;;;;11.45;9.50;;;;;;;13.30;77.62;97858.09;5012769;28;20152;-62
2022/05/10 05:45:32;;;;;;;10.05;8.82;;;;;;;13.35;77.76;97858.94;5011766;28;20051;-62
2022/05/10 05:48:07;;;;;;;13.63;10.73;;;;;;;13.37;78.17;97855.94;5004309;28;20078;-62
2022/05/10 05:50:34;;;;;;;12.85;10.00;;;;;;;13.45;77.90;97857.41;5016512;28;20100;-62
2022/05/10 05:53:00;;;;;;;10.98;9.68;;;;;;;13.58;77.75;97854.28;5015114;28;20447;-63
2022/05/10 05:55:27;;;;;;;12.40;8.80;;;;;;;13.72;76.81;97854.66;5017788;28;20128;-62
2022/05/10 05:57:54;;;;;;;10.25;9.02;;;;;;;13.84;76.51;97850.91;5021205;28;20045;-62
2022/05/10 06:00:23;;;;;;;16.05;9.52;;;;;;;13.91;76.24;97849.63;5002740;28;20053;-65
2022/05/10 06:02:50;;;;;;;10.23;9.05;;;;;;;13.98;76.12;97851.28;5009139;28;20046;-62
2022/05/10 06:05:19;;;;;;;10.60;8.88;;;;;;;14.10;76.08;97851.91;5012487;28;20313;-62
2022/05/10 06:07:46;;;;;;;12.15;9.30;;;;;;;14.25;75.61;97850.34;5005821;28;20053;-62
2022/05/10 06:10:13;;;;;;;11.80;9.43;;;;;;;14.46;75.81;97853.16;5013612;28;20492;-62
2022/05/10 06:12:41;;;;;;;11.45;8.43;;;;;;;14.62;75.24;97852.16;5018738;28;20091;-62
2022/05/10 06:15:15;;;;;;;10.57;8.48;;;;;;;14.78;74.55;97853.06;5009895;28;20042;-62
2022/05/10 06:17:44;;;;;;;10.85;9.20;;;;;;;14.89;74.28;97855.81;5004912;28;20089;-61
2022/05/10 06:20:13;;;;;;;13.48;8.95;;;;;;;15.04;73.76;97852.31;5018642;28;20489;-63
2022/05/10 06:22:44;;;;;;;10.40;8.55;;;;;;;15.19;73.88;97856.97;5006487;28;20061;-62
2022/05/10 06:25:15;;;;;;;9.00;7.28;;;;;;;15.37;72.11;97849.34;4987738;28;20513;-62
2022/05/10 06:27:41;;;;;;;11.75;8.15;;;;;;;15.58;71.96;97852.91;5000363;28;20088;-63
2022/05/10 06:30:08;;;;;;;8.93;8.02;;;;;;;15.80;71.14;97849.91;5004151;28;20046;-62
2022/05/10 06:32:35;;;;;;;12.90;7.70;;;;;;;16.04;70.48;97854.81;5001920;28;20632;-63
2022/05/10 06:35:02;;;;;;;10.98;7.93;;;;;;;16.16;69.11;97851.78;4995775;28;20062;-62
2022/05/10 06:40:17;;;;;;;8.68;7.20;;;;;;;16.48;66.98;97858.78;4998949;28;20038;-63
2022/05/10 06:42:43;;;;;;;12.43;7.15;;;;;;;16.51;66.42;97860.13;4993201;28;20050;-63
2022/05/10 06:45:15;;;;;;;12.13;7.30;;;;;;;16.59;65.44;97856.81;4999093;28;20093;-62
2022/05/10 06:47:43;;;;;;;8.85;6.47;;;;;;;16.69;65.87;97855.97;4992295;28;20042;-63
2022/05/10 06:50:14;;;;;;;7.90;6.40;;;;;;;16.81;66.64;97854.84;4994270;28;20114;-63
2022/05/10 06:52:41;;;;;;;9.65;6.85;;;;;;;16.94;64.40;97850.66;5000504;28;20497;-62
2022/05/10 06:55:14;;;;;;;8.70;6.35;;;;;;;17.04;64.21;97858.81;5003088;28;20401;-62
2022/05/10 06:57:40;;;;;;;8.75;7.00;;;;;;;17.14;63.72;97857.97;5002829;28;20528;-63
2022/05/10 07:00:09;;;;;;;11.98;6.15;;;;;;;17.27;62.96;97851.84;5025915;28;20436;-63
2022/05/10 07:02:37;;;;;;;9.60;6.40;;;;;;;17.30;61.98;97853.22;5009272;28;20049;-64
2022/05/10 07:05:06;;;;;;;9.02;6.57;;;;;;;17.43;62.03;97846.25;5005047;28;20046;-64
2022/05/10 07:07:34;;;;;;;10.77;6.60;;;;;;;17.39;62.21;97847.94;5004667;28;20048;-64
2022/05/10 07:10:02;;;;;;;10.88;6.25;;;;;;;17.46;62.01;97858.59;4989178;28;20046;-64
2022/05/10 07:12:28;;;;;;;8.80;6.47;;;;;;;17.47;61.44;97854.72;4998695;28;20057;-64
2022/05/10 07:14:55;;;;;;;7.63;5.95;;;;;;;17.61;62.24;97857.63;5003649;28;20108;-64
2022/05/10 07:17:21;;;;;;;10.68;6.70;;;;;;;17.62;61.94;97851.06;4983385;28;20493;-64
2022/05/10 07:19:48;;;;;;;9.00;6.10;;;;;;;17.70;61.09;97850.44;4988391;28;20645;-64
2022/05/10 07:22:15;;;;;;;8.05;6.60;;;;;;;17.66;60.46;97858.38;5000548;28;20045;-64
2022/05/10 07:24:41;;;;;;;11.18;6.15;;;;;;;17.80;61.63;97847.59;5019766;28;20034;-64
2022/05/10 07:27:08;;;;;;;11.63;6.30;;;;;;;17.90;60.71;97846.69;5004469;28;20041;-64
2022/05/10 07:29:34;;;;;;;10.07;6.22;;;;;;;18.09;61.49;97842.44;5000037;28;20096;-65
2022/05/10 07:32:01;;;;;;;7.10;6.22;;;;;;;18.18;59.64;97844.22;5008646;28;20053;-64
2022/05/10 07:34:28;;;;;;;11.52;6.15;;;;;;;18.34;59.73;97841.34;5020907;28;20140;-64
2022/05/10 07:36:55;;;;;;;7.63;5.60;;;;;;;18.45;60.78;97858.47;5015932;28;20054;-64
2022/05/10 07:39:23;;;;;;;8.68;6.28;;;;;;;18.52;59.33;97849.91;5004168;28;20045;-64
2022/05/10 07:41:54;;;;;;;7.25;5.82;;;;;;;18.68;59.29;97847.78;5002558;28;20045;-64
2022/05/10 07:44:22;;;;;;;10.27;5.65;;;;;;;18.72;59.20;97846.09;5014298;28;20045;-66
2022/05/10 07:46:49;;;;;;;8.73;5.70;;;;;;;18.75;58.32;97848.25;5008524;28;20053;-66
2022/05/10 07:49:16;;;;;;;7.88;5.82;;;;;;;18.82;60.00;97856.09;5016181;28;20049;-65
2022/05/10 07:51:42;;;;;;;7.88;5.47;;;;;;;18.94;58.64;97851.00;4996133;28;20050;-65
2022/05/10 07:54:09;;;;;;;8.93;5.97;;;;;;;19.06;58.95;97845.09;5005011;28;20049;-65
2022/05/10 07:56:37;;;;;;;13.63;6.82;;;;;;;19.19;60.23;97845.47;5019468;28;20463;-65
2022/05/10 07:59:04;;;;;;;10.20;5.88;;;;;;;19.12;57.50;97845.06;5015360;28;20064;-65
2022/05/10 08:01:31;;;;;;;7.80;5.75;;;;;;;19.25;58.95;97847.06;5007673;28;20496;-65
2022/05/10 08:03:58;;;;;;;10.15;5.47;;;;;;;19.42;58.80;97848.44;5013669;28;20135;-65
2022/05/10 08:06:26;;;;;;;8.65;5.60;;;;;;;19.49;58.38;97849.69;5012674;28;20578;-65
2022/05/10 08:08:53;;;;;;;14.85;5.38;;;;;;;19.57;57.08;97845.44;5026290;28;20578;-65
2022/05/10 08:11:20;;;;;;;11.95;5.75;;;;;;;19.60;56.01;97842.09;5002415;28;20045;-65
2022/05/10 08:13:46;;;;;;;14.77;5.60;;;;;;;19.74;57.24;97846.81;5009694;28;20440;-65
2022/05/10 08:16:13;;;;;;;12.25;5.22;;;;;;;19.76;56.05;97844.59;5008952;28;20748;-65
2022/05/10 08:18:45;;;;;;;9.23;5.32;;;;;;;19.86;55.83;97841.66;5015819;28;20095;-65
2022/05/10 08:21:13;;;;;;;8.95;5.32;;;;;;;19.93;55.68;97844.00;5018361;28;20033;-65
2022/05/10 08:23:40;;;;;;;9.50;5.72;;;;;;;20.07;55.08;97843.25;5017398;28;20679;-65
2022/05/10 08:26:08;;;;;;;9.82;5.90;;;;;;;20.17;55.35;97834.84;5010367;28;20045;-66
2022/05/10 08:28:36;;;;;;;7.82;6.38;;;;;;;20.22;56.37;97837.47;4992316;28;20433;-65
2022/05/10 08:31:05;;;;;;;7.22;5.70;;;;;;;20.34;55.06;97836.16;4993893;28;20038;-65
2022/05/10 08:33:34;;;;;;;7.10;5.28;;;;;;;20.44;54.55;97837.88;5007645;28;20050;-65
2022/05/10 08:36:01;;;;;;;10.38;4.97;;;;;;;20.42;52.07;97834.63;4998998;28;20100;-65
2022/05/10 08:38:30;;;;;;;6.47;5.15;;;;;;;20.56;53.82;97840.94;5008049;28;20722;-65
2022/05/10 08:41:02;;;;;;;13.98;5.38;;;;;;;20.71;55.40;97837.03;5002711;28;20788;-66
2022/05/10 08:43:37;;;;;;;6.18;4.80;;;;;;;20.80;50.59;97839.91;5006384;28;20036;-65
2022/05/10 08:46:06;;;;;;;6.78;4.60;;;;;;;20.88;47.84;97841.13;5001192;28;20034;-65
2022/05/10 08:48:33;;;;;;;7.20;4.32;;;;;;;21.01;49.19;97831.22;5002032;28;20046;-66
2022/05/10 08:51:01;;;;;;;6.32;4.25;;;;;;;21.10;47.01;97832.13;4998752;28;20664;-66
2022/05/10 08:53:30;;;;;;;5.65;4.30;;;;;;;21.20;47.42;97833.00;5016294;28;20056;-66
2022/05/10 08:56:26;;;;;;;4.85;4.07;;;;;;;21.08;46.48;97826.09;5012062;28;20045;-65
2022/05/10 08:59:16;;;;;;;5.78;3.72;;;;;;;21.33;45.53;97826.63;5017766;28;20060;-65
2022/05/10 09:01:59;;;;;;;5.83;4.60;;;;;;;21.39;45.68;97821.81;5005488;28;20042;-65
2022/05/10 09:04:48;;;;;;;6.13;4.28;;;;;;;21.41;47.44;97834.13;4994479;28;20509;-65
2022/05/10 09:07:27;;;;;;;7.00;4.32;;;;;;;21.36;45.69;97831.50;5008831;28;20053;-65
2022/05/10 09:10:03;;;;;;;6.38;4.40;;;;;;;21.30;45.63;97830.03;5012713;28;20042;-66
2022/05/10 09:12:42;;;;;;;6.43;4.25;;;;;;;21.43;46.18;97826.41;5012916;28;20597;-65
2022/05/10 09:15:12;;;;;;;6.35;4.80;;;;;;;21.59;44.63;97827.97;5008963;28;20668;-65
2022/05/10 09:17:39;;;;;;;6.80;4.18;;;;;;;21.73;44.79;97831.47;5011416;28;20767;-65
2022/05/10 09:20:09;;;;;;;5.63;4.28;;;;;;;21.48;44.64;97828.19;5019664;28;20045;-65
2022/05/10 09:23:24;;;;;;;5.55;4.57;;;;;;;21.89;44.13;97820.84;5009929;28;20053;-64
2022/05/10 09:25:55;;;;;;;7.47;4.45;;;;;;;21.92;44.95;97827.69;5009428;28;20042;-63
2022/05/10 09:28:38;;;;;;;7.50;4.40;;;;;;;21.61;43.89;97818.25;4997180;28;20540;-63
2022/05/10 09:34:45;;;;;;;6.78;4.00;;;;;;;22.14;43.45;97814.97;4994276;28;20698;-63
2022/05/10 09:37:30;;;;;;;7.40;4.10;;;;;;;22.39;42.12;97816.22;5004807;28;20547;-64
2022/05/10 09:39:56;;;;;;;5.82;4.03;;;;;;;22.60;42.08;97810.13;5007614;28;20046;-63
2022/05/10 09:42:26;;;;;;;5.07;4.13;;;;;;;22.78;41.25;97813.75;5007398;28;20053;-68
2022/05/10 09:45:16;;;;;;;6.47;4.30;;;;;;;22.81;41.16;97813.09;5009314;28;20109;-64
2022/05/10 09:47:58;;;;;;;7.78;4.43;;;;;;;22.64;41.39;97816.66;5003141;28;20079;-64
2022/05/10 09:50:44;;;;;;;6.22;4.60;;;;;;;22.66;41.71;97803.31;5019408;28;20515;-64
2022/05/10 09:53:22;;;;;;;5.20;3.90;;;;;;;22.58;43.10;97812.41;5001831;28;20579;-62
2022/05/10 09:56:08;;;;;;;7.65;4.43;;;;;;;22.95;41.87;97810.19;4996457;28;20119;-63
2022/05/10 09:58:38;;;;;;;9.30;4.47;;;;;;;23.32;40.98;97814.56;5015414;28;20055;-65
2022/05/10 10:01:07;;;;;;;;;;;;;;;22.69;41.09;97799.94;5006309;28;20053;-64
2022/05/10 10:03:37;;;;;;;6.25;4.45;;;;;;;23.13;39.68;97799.16;5017586;28;19921;-63
2022/05/10 10:06:22;;;;;;;5.35;3.75;;;;;;;23.27;39.60;97799.00;5006543;28;20051;-63
2022/05/10 10:08:56;;;;;;;5.97;4.00;;;;;;;22.86;41.00;97799.13;5013806;28;20045;-63
2022/05/10 10:11:24;;;;;;;7.28;4.00;;;;;;;23.31;40.88;97797.19;5000606;28;20584;-63
2022/05/10 10:13:54;;;;;;;5.57;4.10;;;;;;;23.50;40.54;97804.34;5007191;28;20053;-63
2022/05/10 10:16:31;;;;;;;7.43;4.03;;;;;;;23.14;41.51;97798.00;4997091;28;20375;-64
2022/05/10 10:19:25;;;;;;;6.25;4.28;;;;;;;22.41;43.37;97796.59;5008134;28;20045;-63
2022/05/10 10:22:02;;;;;;;5.75;3.83;;;;;;;22.76;42.32;97798.63;5012766;28;20420;-63
2022/05/10 10:24:45;;;;;;;5.78;3.78;;;;;;;23.02;41.55;97795.06;5023033;28;20042;-63
2022/05/10 10:27:18;;;;;;;6.13;3.85;;;;;;;23.34;39.88;97795.75;5001293;28;20444;-64
2022/05/10 10:30:09;;;;;;;5.53;3.53;;;;;;;23.70;38.02;97796.53;5017981;28;20242;-63
2022/05/10 10:32:45;;;;;;;6.55;3.63;;;;;;;23.98;38.04;97794.16;5007582;28;20061;-63
2022/05/10 10:35:32;;;;;;;7.97;4.00;;;;;;;24.36;36.46;97786.22;4997327;28;20639;-63
2022/05/10 10:38:09;;;;;;;5.40;3.70;;;;;;;24.06;37.60;97786.16;5006690;28;20041;-63
2022/05/10 10:40:40;;;;;;;5.15;3.92;;;;;;;24.56;37.16;97784.66;5013540;28;20046;-63
2022/05/10 10:43:29;;;;;;;8.43;3.75;;;;;;;24.33;37.42;97781.34;5004850;28;20046;-63
2022/05/10 10:46:07;;;;;;;6.30;4.03;;;;;;;23.35;38.50;97778.03;5006173;28;20053;-63
2022/05/10 10:48:47;;;;;;;6.05;3.50;;;;;;;23.46;39.34;97778.50;5009704;28;20056;-63
2022/05/10 10:51:15;;;;;;;6.70;4.43;;;;;;;24.26;38.88;97781.88;5010552;28;20514;-64
2022/05/10 10:53:44;;;;;;;6.55;3.78;;;;;;;24.83;36.75;97776.97;5009092;28;20069;-63
2022/05/10 10:56:34;;;;;;;4.88;4.05;;;;;;;24.55;36.07;97771.97;5014281;28;20056;-63
2022/05/10 10:59:04;;;;;;;5.82;3.30;;;;;;;24.49;36.35;97776.06;5004730;28;20108;-63
2022/05/10 11:01:50;;;;;;;8.13;4.57;;;;;;;24.43;36.51;97772.66;5012478;28;20045;-64
2022/05/10 11:04:54;;;;;;;9.73;4.57;;;;;;;24.76;36.13;97773.94;4999024;28;20049;-63
2022/05/10 11:07:59;;;;;;;5.53;3.70;;;;;;;24.77;36.53;97762.50;5009295;28;20036;-63
2022/05/10 11:10:55;;;;;;;5.50;3.53;;;;;;;25.23;36.37;97770.16;5015904;28;20041;-64
2022/05/10 11:13:28;;;;;;;5.80;4.35;;;;;;;24.63;35.79;97759.19;5012918;28;20135;-63
2022/05/10 11:16:06;;;;;;;6.68;4.57;;;;;;;23.83;36.39;97761.50;5005829;28;20145;-63
2022/05/10 11:18:48;;;;;;;4.97;3.40;;;;;;;24.16;37.02;97752.63;5012309;28;20049;-63
2022/05/10 11:21:34;;;;;;;4.88;3.63;;;;;;;24.37;36.81;97754.63;5011088;28;20133;-63
2022/05/10 11:24:20;;;;;;;8.15;4.00;;;;;;;24.25;36.54;97749.81;5010001;28;20061;-63
2022/05/10 11:27:06;;;;;;;5.45;3.92;;;;;;;24.06;38.92;97751.00;4994130;28;20058;-63
2022/05/10 11:29:41;;;;;;;7.10;4.10;;;;;;;24.12;39.30;97737.84;5003080;28;20056;-63
2022/05/10 11:32:40;;;;;;;6.70;4.35;;;;;;;24.37;41.17;97743.56;5006303;28;20520;-64
2022/05/10 11:35:19;;;;;;;7.47;4.78;;;;;;;24.81;38.90;97746.84;5009992;28;20420;-64
2022/05/10 11:37:52;;;;;;;6.47;4.53;;;;;;;24.54;38.03;97746.22;5000177;28;20122;-63
2022/05/10 11:40:31;;;;;;;8.55;3.90;;;;;;;24.76;37.10;97737.94;4998881;28;20046;-64
2022/05/10 11:43:12;;;;;;;5.35;4.00;;;;;;;24.88;37.13;97745.53;4999624;28;20125;-63
2022/05/10 11:45:48;;;;;;;5.57;4.05;;;;;;;25.21;36.36;97736.47;5010510;28;20428;-63
2022/05/10 11:48:26;;;;;;;6.50;4.13;;;;;;;24.71;37.31;97735.34;5001718;28;20107;-64
2022/05/10 11:54:23;;;;;;;5.80;4.00;;;;;;;25.19;36.06;97733.19;4999860;28;20068;-63
2022/05/10 11:56:53;;;;;;;4.75;3.55;;;;;;;25.74;34.11;97729.56;4999954;28;20060;-63
2022/05/10 11:59:32;;;;;;;5.07;3.65;;;;;;;25.92;33.85;97733.75;5006603;28;20056;-63
2022/05/10 12:02:00;;;;;;;9.57;3.42;;;;;;;24.88;35.38;97721.41;4998039;28;20042;-64
2022/05/10 12:04:37;;;;;;;7.63;3.63;;;;;;;25.37;35.45;97710.84;5019641;28;20057;-63
2022/05/10 12:07:19;;;;;;;8.80;4.18;;;;;;;25.77;34.43;97709.47;5010413;28;20675;-63
2022/05/10 12:09:51;;;;;;;4.70;3.50;;;;;;;25.93;34.88;97712.34;4987874;28;20046;-63
2022/05/10 12:12:33;;;;;;;6.25;3.65;;;;;;;25.88;34.48;97705.09;4994611;28;20049;-63
2022/05/10 12:21:22;;;;;;;6.15;4.38;;;;;;;26.19;33.64;97695.38;5010676;28;20065;-63
2022/05/10 12:24:03;;;;;;;7.53;4.10;;;;;;;26.18;34.01;97698.50;5023198;28;20053;-63
2022/05/10 12:26:37;;;;;;;4.80;3.30;;;;;;;26.36;33.32;97693.53;5015570;28;20045;-64
2022/05/10 12:29:05;;;;;;;6.63;3.75;;;;;;;26.31;33.98;97693.78;5004008;28;20057;-63